createdAt,value
2019-05-03T00:00:13.579Z,2.30
2019-05-03T00:02:54.056Z,2.73
2019-05-03T00:05:22.456Z,2.40
2019-05-03T00:07:52.648Z,2.60
2019-05-03T00:10:22.239Z,2.53
2019-05-03T00:12:48.323Z,2.23
2019-05-03T00:15:25.931Z,2.70
2019-05-03T00:17:52.640Z,2.70
2019-05-03T00:20:19.700Z,2.50
2019-05-03T00:22:46.019Z,2.53
2019-05-03T00:25:12.846Z,2.67
2019-05-03T00:27:40.015Z,2.13
2019-05-03T00:30:08.000Z,2.00
2019-05-03T00:32:34.361Z,2.60
2019-05-03T00:35:09.031Z,2.40
2019-05-03T00:37:36.989Z,2.30
2019-05-03T00:40:07.211Z,2.30
2019-05-03T00:42:33.661Z,1.83
2019-05-03T00:45:02.310Z,2.00
2019-05-03T00:47:29.076Z,2.43
2019-05-03T00:49:55.407Z,2.60
2019-05-03T00:52:22.404Z,2.27
2019-05-03T00:54:49.606Z,2.10
2019-05-03T00:57:15.931Z,2.37
2019-05-03T00:59:42.100Z,2.10
2019-05-03T01:02:08.667Z,2.13
2019-05-03T01:04:35.088Z,2.23
2019-05-03T01:07:02.264Z,1.80
2019-05-03T01:09:31.720Z,2.07
2019-05-03T01:11:58.364Z,2.60
2019-05-03T01:14:24.764Z,2.20
2019-05-03T01:16:52.174Z,2.00
2019-05-03T01:19:18.995Z,2.13
2019-05-03T01:21:45.049Z,2.00
2019-05-03T01:24:12.304Z,1.90
2019-05-03T01:26:39.265Z,2.00
2019-05-03T01:29:05.598Z,1.60
2019-05-03T01:31:31.969Z,2.20
2019-05-03T01:33:58.572Z,2.20
2019-05-03T01:36:24.630Z,2.00
2019-05-03T01:38:52.667Z,2.10
2019-05-03T01:41:18.996Z,2.00
2019-05-03T01:43:45.407Z,2.30
2019-05-03T01:46:12.048Z,2.20
2019-05-03T01:48:58.036Z,2.00
2019-05-03T01:51:42.821Z,2.00
2019-05-03T01:54:09.140Z,1.93
2019-05-03T01:56:35.219Z,2.10
2019-05-03T01:59:01.841Z,2.10
2019-05-03T02:01:47.874Z,2.37
2019-05-03T02:04:16.163Z,2.70
2019-05-03T02:06:42.612Z,2.07
2019-05-03T02:09:09.028Z,2.40
2019-05-03T02:11:35.770Z,1.90
2019-05-03T02:14:01.877Z,1.80
2019-05-03T02:16:28.427Z,2.47
2019-05-03T02:18:55.171Z,2.43
2019-05-03T02:21:21.623Z,2.60
2019-05-03T02:23:48.732Z,2.33
2019-05-03T02:26:15.491Z,2.37
2019-05-03T02:28:42.154Z,2.30
2019-05-03T02:31:09.316Z,2.30
2019-05-03T02:33:35.712Z,2.27
2019-05-03T02:36:03.662Z,2.20
2019-05-03T02:38:30.412Z,1.90
2019-05-03T02:40:56.563Z,2.13
2019-05-03T02:43:27.580Z,2.30
2019-05-03T02:46:05.846Z,2.10
2019-05-03T02:48:36.406Z,2.17
2019-05-03T02:51:06.348Z,2.10
2019-05-03T02:53:31.950Z,2.00
2019-05-03T02:56:13.954Z,2.17
2019-05-03T02:58:25.951Z,2.37
2019-05-03T03:00:59.149Z,2.20
2019-05-03T03:03:26.693Z,2.77
2019-05-03T03:05:56.599Z,2.00
2019-05-03T03:08:27.949Z,2.30
2019-05-03T03:10:58.321Z,2.47
2019-05-03T03:13:27.789Z,2.57
2019-05-03T03:15:56.357Z,2.47
2019-05-03T03:18:25.369Z,2.37
2019-05-03T03:20:51.708Z,2.63
2019-05-03T03:23:19.970Z,2.47
2019-05-03T03:25:50.459Z,3.00
2019-05-03T03:28:20.014Z,2.20
2019-05-03T03:31:08.836Z,1.83
2019-05-03T03:33:40.336Z,2.27
2019-05-03T03:36:31.481Z,2.30
2019-05-03T03:38:35.523Z,2.40
2019-05-03T03:41:05.851Z,2.60
2019-05-03T03:43:35.313Z,2.10
2019-05-03T03:46:05.275Z,2.53
2019-05-03T03:48:35.342Z,2.13
2019-05-03T03:51:05.154Z,2.20
2019-05-03T03:53:35.609Z,2.03
2019-05-03T03:56:05.366Z,2.63
2019-05-03T03:58:30.894Z,2.23
2019-05-03T04:00:56.951Z,2.07
2019-05-03T04:03:26.018Z,2.60
2019-05-03T04:05:52.285Z,2.07
2019-05-03T04:08:19.839Z,1.90
2019-05-03T04:10:46.611Z,3.07
2019-05-03T04:13:15.996Z,2.53
2019-05-03T04:15:55.954Z,2.50
2019-05-03T04:18:25.574Z,2.47
2019-05-03T04:20:52.653Z,2.00
2019-05-03T04:23:18.734Z,2.27
2019-05-03T04:25:45.751Z,2.17
2019-05-03T04:28:12.392Z,2.13
2019-05-03T04:30:38.547Z,2.20
2019-05-03T04:33:05.924Z,2.07
2019-05-03T04:35:32.613Z,2.00
2019-05-03T04:37:59.051Z,2.27
2019-05-03T04:40:26.102Z,2.37
2019-05-03T04:42:55.635Z,2.33
2019-05-03T04:45:22.461Z,2.50
2019-05-03T04:47:48.620Z,2.10
2019-05-03T04:50:16.312Z,1.77
2019-05-03T04:52:46.032Z,1.90
2019-05-03T04:55:11.341Z,2.13
2019-05-03T04:57:44.944Z,2.30
2019-05-03T05:00:11.431Z,2.27
2019-05-03T05:02:38.048Z,2.10
2019-05-03T05:05:07.520Z,2.30
2019-05-03T05:07:35.127Z,2.50
2019-05-03T05:10:05.220Z,2.27
2019-05-03T05:12:31.875Z,2.00
2019-05-03T05:14:58.400Z,1.83
2019-05-03T05:17:26.492Z,2.30
2019-05-03T05:20:01.140Z,2.33
2019-05-03T05:22:29.129Z,2.10
2019-05-03T05:24:57.139Z,1.90
2019-05-03T05:27:25.703Z,2.60
2019-05-03T05:29:55.292Z,2.30
2019-05-03T05:32:21.455Z,2.27
2019-05-03T05:34:47.553Z,2.07
2019-05-03T05:37:14.544Z,2.87
2019-05-03T05:39:41.732Z,2.30
2019-05-03T05:42:07.864Z,2.47
2019-05-03T05:44:35.242Z,2.00
2019-05-03T05:47:04.704Z,2.10
2019-05-03T05:49:48.270Z,2.90
2019-05-03T05:52:15.450Z,2.30
2019-05-03T05:54:45.551Z,2.23
2019-05-03T05:57:30.483Z,2.50
2019-05-03T05:59:58.439Z,1.77
2019-05-03T06:02:25.341Z,2.43
2019-05-03T06:04:52.152Z,2.37
2019-05-03T06:07:26.757Z,2.57
2019-05-03T06:10:10.943Z,2.23
2019-05-03T06:12:38.928Z,2.47
2019-05-03T06:15:12.267Z,3.00
2019-05-03T06:17:46.508Z,2.30
2019-05-03T06:20:27.920Z,2.70
2019-05-03T06:22:58.698Z,2.63
2019-05-03T06:25:35.212Z,2.57
2019-05-03T06:28:16.979Z,2.67
2019-05-03T06:30:32.857Z,2.33
2019-05-03T06:32:59.276Z,2.20
2019-05-03T06:35:25.691Z,2.80
2019-05-03T06:37:54.482Z,2.43
2019-05-03T06:40:20.724Z,2.83
2019-05-03T06:42:54.477Z,2.30
2019-05-03T06:45:15.431Z,2.60
2019-05-03T06:47:45.887Z,4.07
2019-05-03T06:50:14.551Z,3.87
2019-05-03T06:52:41.026Z,4.90
2019-05-03T06:55:10.578Z,3.90
2019-05-03T06:57:40.097Z,5.23
2019-05-03T07:00:08.975Z,4.50
2019-05-03T07:02:37.563Z,4.80
2019-05-03T07:05:07.255Z,4.13
2019-05-03T07:07:38.524Z,4.77
2019-05-03T07:10:09.553Z,4.70
2019-05-03T07:12:54.674Z,4.30
2019-05-03T07:15:20.932Z,5.07
2019-05-03T07:17:46.989Z,5.57
2019-05-03T07:20:14.743Z,4.07
2019-05-03T07:22:41.028Z,4.77
2019-05-03T07:25:07.501Z,5.20
2019-05-03T07:27:34.993Z,5.27
2019-05-03T07:30:04.910Z,4.70
2019-05-03T07:32:32.327Z,4.60
2019-05-03T07:34:59.067Z,5.50
2019-05-03T07:37:25.395Z,4.90
2019-05-03T07:39:51.848Z,4.80
2019-05-03T07:42:17.928Z,5.37
2019-05-03T07:44:45.060Z,5.30
2019-05-03T07:47:14.727Z,4.80
2019-05-03T07:49:40.564Z,5.03
2019-05-03T07:52:06.856Z,5.27
2019-05-03T07:54:34.801Z,4.60
2019-05-03T07:57:04.986Z,4.90
2019-05-03T07:59:31.068Z,5.20
2019-05-03T08:01:57.993Z,4.10
2019-05-03T08:04:25.506Z,4.77
2019-05-03T08:06:52.123Z,4.37
2019-05-03T08:09:18.180Z,4.17
2019-05-03T08:11:44.448Z,4.20
2019-05-03T08:14:11.422Z,4.70
2019-05-03T08:16:37.495Z,4.33
2019-05-03T08:19:05.007Z,4.80
2019-05-03T08:21:31.937Z,5.07
2019-05-03T08:23:58.380Z,4.33
2019-05-03T08:26:25.717Z,4.97
2019-05-03T08:28:54.462Z,4.73
2019-05-03T08:31:39.139Z,3.90
2019-05-03T08:34:25.851Z,4.30
2019-05-03T08:36:54.968Z,4.00
2019-05-03T08:39:21.129Z,3.87
2019-05-03T08:42:01.216Z,4.03
2019-05-03T08:44:28.406Z,4.90
2019-05-03T08:46:56.860Z,4.00
2019-05-03T08:49:22.904Z,4.00
2019-05-03T08:51:49.232Z,4.23
2019-05-03T08:54:15.283Z,4.47
2019-05-03T08:56:41.679Z,4.73
2019-05-03T08:59:07.727Z,4.50
2019-05-03T09:01:37.714Z,4.10
2019-05-03T09:04:02.128Z,4.60
2019-05-03T09:06:28.835Z,4.00
2019-05-03T09:08:57.105Z,4.60
2019-05-03T09:11:31.826Z,4.47
2019-05-03T09:13:59.303Z,4.83
2019-05-03T09:16:25.396Z,3.60
2019-05-03T09:18:52.085Z,4.50
2019-05-03T09:21:18.400Z,3.80
2019-05-03T09:23:45.082Z,3.77
2019-05-03T09:26:12.386Z,4.50
2019-05-03T09:28:38.469Z,4.30
2019-05-03T09:31:04.840Z,4.63
2019-05-03T09:33:31.287Z,4.50
2019-05-03T09:35:57.604Z,4.40
2019-05-03T09:38:25.476Z,4.77
2019-05-03T09:40:51.976Z,4.43
2019-05-03T09:43:18.760Z,4.60
2019-05-03T09:45:45.770Z,4.40
2019-05-03T09:48:14.870Z,5.17
2019-05-03T09:50:41.931Z,5.70
2019-05-03T09:53:09.113Z,4.80
2019-05-03T09:55:40.736Z,4.77
2019-05-03T09:58:06.785Z,4.57
2019-05-03T10:00:33.083Z,4.60
2019-05-03T10:02:59.561Z,4.50
2019-05-03T10:05:25.977Z,4.60
2019-05-03T10:07:54.328Z,5.07
2019-05-03T10:10:20.848Z,3.90
2019-05-03T10:12:46.977Z,4.73
2019-05-03T10:15:15.400Z,3.73
2019-05-03T10:17:45.821Z,4.20
2019-05-03T10:20:15.328Z,4.07
2019-05-03T10:22:42.164Z,4.03
2019-05-03T10:25:10.417Z,3.57
2019-05-03T10:27:46.064Z,4.40
2019-05-03T10:30:20.896Z,4.30
2019-05-03T10:32:57.663Z,4.47
2019-05-03T10:35:24.660Z,4.10
2019-05-03T10:37:51.557Z,4.17
2019-05-03T10:40:26.978Z,4.60
2019-05-03T10:42:55.339Z,4.67
2019-05-03T10:45:25.773Z,4.10
2019-05-03T10:47:51.384Z,4.20
2019-05-03T10:50:17.565Z,3.60
2019-05-03T10:52:45.894Z,3.87
2019-05-03T10:55:12.163Z,4.00
2019-05-03T10:57:40.639Z,3.60
2019-05-03T11:00:38.641Z,3.60
2019-05-03T11:02:42.831Z,3.33
2019-05-03T11:05:10.311Z,4.20
2019-05-03T11:07:37.000Z,3.73
2019-05-03T11:10:05.376Z,5.03
2019-05-03T11:12:31.945Z,3.70
2019-05-03T11:14:58.352Z,4.53
2019-05-03T11:17:25.639Z,5.10
2019-05-03T11:19:54.603Z,3.30
2019-05-03T11:22:20.607Z,4.93
2019-05-03T11:24:46.665Z,3.70
2019-05-03T11:27:17.428Z,3.80
2019-05-03T11:29:45.002Z,4.40
2019-05-03T11:32:25.581Z,3.70
2019-05-03T11:35:04.569Z,3.80
2019-05-03T11:37:42.636Z,4.13
2019-05-03T11:40:09.892Z,4.93
2019-05-03T11:42:36.615Z,3.37
2019-05-03T11:45:04.871Z,3.70
2019-05-03T11:47:31.281Z,3.30
2019-05-03T11:49:57.731Z,3.40
2019-05-03T11:52:25.827Z,3.80
2019-05-03T11:54:52.057Z,4.20
2019-05-03T11:57:24.018Z,3.53
2019-05-03T11:59:50.944Z,3.00
2019-05-03T12:02:19.240Z,3.60
2019-05-03T12:04:45.964Z,3.33
2019-05-03T12:07:16.001Z,4.30
2019-05-03T12:09:45.114Z,4.00
2019-05-03T12:12:15.180Z,4.20
2019-05-03T12:14:41.520Z,3.30
2019-05-03T12:17:19.610Z,3.50
2019-05-03T12:19:41.599Z,3.60
2019-05-03T12:22:09.173Z,3.60
2019-05-03T12:24:36.758Z,3.53
2019-05-03T12:27:04.722Z,3.20
2019-05-03T12:29:31.907Z,3.43
2019-05-03T12:31:57.961Z,3.27
2019-05-03T12:34:25.606Z,3.43
2019-05-03T12:36:52.384Z,3.10
2019-05-03T12:39:26.830Z,3.10
2019-05-03T12:41:48.223Z,3.30
2019-05-03T12:44:15.290Z,2.80
2019-05-03T12:46:42.153Z,2.83
2019-05-03T12:49:08.200Z,3.00
2019-05-03T12:51:34.621Z,3.03
2019-05-03T12:54:00.717Z,3.27
2019-05-03T12:56:32.531Z,3.47
2019-05-03T12:59:02.980Z,2.70
2019-05-03T13:01:41.872Z,2.43
2019-05-03T13:04:09.909Z,3.13
2019-05-03T13:06:38.048Z,2.60
2019-05-03T13:09:06.938Z,2.40
2019-05-03T13:11:36.614Z,2.70
2019-05-03T13:14:04.717Z,2.40
2019-05-03T13:16:32.743Z,2.43
2019-05-03T13:18:59.156Z,1.77
2019-05-03T13:21:25.364Z,2.53
2019-05-03T13:23:51.892Z,2.50
2019-05-03T13:26:18.347Z,2.90
2019-05-03T13:28:45.652Z,3.33
2019-05-03T13:31:12.549Z,2.77
2019-05-03T13:33:38.600Z,3.27
2019-05-03T13:36:04.900Z,3.37
2019-05-03T13:38:30.972Z,4.13
2019-05-03T13:40:57.175Z,4.00
2019-05-03T13:43:23.579Z,2.60
2019-05-03T13:45:49.672Z,2.53
2019-05-03T13:48:21.011Z,3.63
2019-05-03T13:50:44.654Z,4.50
2019-05-03T13:53:11.147Z,3.97
2019-05-03T13:55:37.204Z,3.60
2019-05-03T13:58:05.215Z,3.83
2019-05-03T14:00:31.680Z,2.90
2019-05-03T14:02:58.007Z,2.70
2019-05-03T14:05:24.591Z,3.07
2019-05-03T14:07:51.096Z,2.77
2019-05-03T14:10:18.080Z,3.30
2019-05-03T14:12:45.465Z,2.80
2019-05-03T14:15:14.805Z,2.37
2019-05-03T14:17:41.036Z,2.53
2019-05-03T14:20:14.764Z,2.80
2019-05-03T14:22:43.839Z,2.70
2019-05-03T14:25:09.979Z,2.60
2019-05-03T14:27:36.772Z,3.07
2019-05-03T14:30:09.048Z,2.33
2019-05-03T14:32:35.990Z,2.63
2019-05-03T14:35:04.032Z,2.60
2019-05-03T14:37:30.079Z,2.30
2019-05-03T14:39:56.161Z,2.53
2019-05-03T14:42:24.645Z,1.93
2019-05-03T14:44:50.813Z,2.30
2019-05-03T14:47:17.137Z,2.63
2019-05-03T14:49:43.979Z,2.23
2019-05-03T14:52:10.425Z,2.77
2019-05-03T14:54:38.372Z,2.30
2019-05-03T14:57:06.361Z,2.17
2019-05-03T14:59:51.109Z,2.60
2019-05-03T15:02:19.087Z,2.30
2019-05-03T15:04:45.508Z,2.40
2019-05-03T15:07:11.587Z,2.20
2019-05-03T15:09:37.635Z,2.33
2019-05-03T15:12:05.310Z,2.03
2019-05-03T15:14:32.083Z,2.50
2019-05-03T15:16:58.503Z,2.47
2019-05-03T15:19:25.451Z,2.10
2019-05-03T15:21:52.387Z,2.33
2019-05-03T15:24:18.471Z,2.10
2019-05-03T15:26:44.827Z,2.10
2019-05-03T15:29:12.616Z,1.97
2019-05-03T15:31:39.035Z,2.17
2019-05-03T15:34:05.486Z,2.60
2019-05-03T15:36:31.529Z,1.93
2019-05-03T15:38:57.916Z,2.10
2019-05-03T15:41:25.192Z,2.03
2019-05-03T15:43:54.745Z,2.00
2019-05-03T15:46:26.724Z,2.17
2019-05-03T15:48:55.157Z,2.10
2019-05-03T15:51:21.867Z,1.70
2019-05-03T15:53:48.591Z,2.47
2019-05-03T15:56:14.771Z,1.87
2019-05-03T15:58:42.921Z,2.40
2019-05-03T16:01:09.423Z,2.00
2019-05-03T16:03:35.812Z,2.27
2019-05-03T16:06:04.958Z,2.00
2019-05-03T16:08:32.512Z,2.33
2019-05-03T16:10:58.586Z,1.63
2019-05-03T16:13:25.281Z,1.90
2019-05-03T16:15:55.243Z,1.73
2019-05-03T16:18:21.739Z,2.10
2019-05-03T16:20:48.459Z,2.10
2019-05-03T16:23:15.425Z,2.00
2019-05-03T16:25:44.713Z,2.10
2019-05-03T16:28:15.167Z,2.30
2019-05-03T16:30:52.141Z,2.20
2019-05-03T16:33:27.141Z,1.80
2019-05-03T16:35:47.144Z,1.97
2019-05-03T16:38:15.717Z,2.00
2019-05-03T16:40:42.244Z,2.17
2019-05-03T16:43:08.323Z,1.87
2019-05-03T16:45:35.045Z,2.10
2019-05-03T16:48:01.920Z,2.17
2019-05-03T16:50:28.367Z,2.47
2019-05-03T16:52:55.025Z,1.77
2019-05-03T16:55:22.476Z,1.73
2019-05-03T16:57:48.804Z,1.83
2019-05-03T17:00:18.072Z,2.10
2019-05-03T17:02:44.847Z,2.20
2019-05-03T17:05:31.344Z,2.30
2019-05-03T17:08:15.610Z,1.93
2019-05-03T17:10:45.377Z,1.60
2019-05-03T17:13:11.845Z,2.03
2019-05-03T17:15:37.891Z,1.93
2019-05-03T17:18:03.941Z,2.20
2019-05-03T17:20:30.027Z,2.07
2019-05-03T17:22:56.341Z,2.10
2019-05-03T17:25:24.402Z,1.87
2019-05-03T17:27:50.642Z,2.07
2019-05-03T17:30:17.126Z,1.97
2019-05-03T17:32:44.579Z,2.40
2019-05-03T17:35:11.467Z,2.10
2019-05-03T17:37:37.581Z,1.70
2019-05-03T17:40:08.030Z,2.23
2019-05-03T17:42:54.594Z,2.10
2019-05-03T17:45:22.916Z,1.93
2019-05-03T17:47:49.236Z,1.90
2019-05-03T17:50:15.316Z,2.13
2019-05-03T17:52:45.091Z,1.90
2019-05-03T17:55:17.188Z,2.20
2019-05-03T17:57:57.424Z,2.57
2019-05-03T18:00:25.389Z,2.30
2019-05-03T18:02:52.403Z,2.30
2019-05-03T18:05:26.723Z,2.50
2019-05-03T18:07:54.780Z,2.30
2019-05-03T18:10:22.243Z,2.60
2019-05-03T18:12:48.296Z,2.27
2019-05-03T18:15:14.794Z,2.60
2019-05-03T18:17:41.544Z,2.40
2019-05-03T18:20:08.879Z,2.97
2019-05-03T18:22:34.927Z,2.60
2019-05-03T18:25:01.781Z,2.60
2019-05-03T18:27:28.092Z,2.33
2019-05-03T18:29:55.420Z,2.60
2019-05-03T18:32:22.256Z,2.97
2019-05-03T18:34:48.616Z,2.70
2019-05-03T18:37:15.274Z,2.70
2019-05-03T18:39:42.608Z,2.43
2019-05-03T18:42:11.192Z,2.80
2019-05-03T18:44:42.535Z,2.87
2019-05-03T18:47:10.848Z,2.57
2019-05-03T18:49:36.931Z,2.43
2019-05-03T18:52:04.422Z,2.57
2019-05-03T18:54:30.778Z,2.80
2019-05-03T18:56:57.563Z,3.10
2019-05-03T18:59:23.903Z,2.87
2019-05-03T19:01:49.952Z,2.80
2019-05-03T19:04:31.389Z,3.10
2019-05-03T19:06:48.928Z,3.57
2019-05-03T19:09:25.007Z,2.87
2019-05-03T19:11:54.896Z,2.53
2019-05-03T19:14:25.349Z,2.53
2019-05-03T19:16:56.673Z,2.70
2019-05-03T19:19:24.947Z,2.90
2019-05-03T19:21:51.281Z,2.90
2019-05-03T19:24:18.224Z,3.23
2019-05-03T19:26:45.137Z,2.70
2019-05-03T19:29:14.751Z,2.63
2019-05-03T19:31:42.451Z,3.10
2019-05-03T19:34:08.863Z,2.83
2019-05-03T19:36:37.211Z,2.70
2019-05-03T19:39:06.797Z,2.53
2019-05-03T19:41:34.477Z,2.73
2019-05-03T19:44:01.663Z,2.40
2019-05-03T19:46:27.992Z,2.83
2019-05-03T19:48:54.694Z,2.83
2019-05-03T19:51:21.572Z,2.73
2019-05-03T19:53:50.154Z,2.33
2019-05-03T19:56:17.441Z,2.70
2019-05-03T19:58:44.195Z,2.20
2019-05-03T20:01:25.303Z,2.73
2019-05-03T20:04:11.731Z,2.67
2019-05-03T20:06:58.020Z,2.97
2019-05-03T20:09:25.919Z,2.87
2019-05-03T20:11:52.215Z,2.83
2019-05-03T20:14:18.547Z,3.20
2019-05-03T20:16:45.008Z,2.67
2019-05-03T20:19:18.811Z,2.63
2019-05-03T20:21:40.412Z,2.57
2019-05-03T20:24:06.866Z,2.80
2019-05-03T20:26:34.778Z,2.73
2019-05-03T20:29:00.915Z,2.87
2019-05-03T20:31:27.005Z,2.60
2019-05-03T20:33:54.835Z,2.60
2019-05-03T20:36:21.074Z,3.00
2019-05-03T20:38:47.384Z,3.77
2019-05-03T20:41:14.860Z,2.87
2019-05-03T20:43:44.525Z,3.00
2019-05-03T20:46:21.717Z,3.20
2019-05-03T20:48:50.000Z,2.93
2019-05-03T20:51:16.053Z,2.80
2019-05-03T20:53:42.142Z,2.80
2019-05-03T20:56:08.219Z,3.07
2019-05-03T20:58:35.802Z,2.70
2019-05-03T21:01:02.368Z,3.63
2019-05-03T21:03:28.786Z,2.93
2019-05-03T21:05:55.257Z,2.23
2019-05-03T21:08:22.017Z,3.10
2019-05-03T21:10:48.087Z,2.50
2019-05-03T21:13:14.704Z,3.30
2019-05-03T21:15:46.235Z,2.37
2019-05-03T21:18:17.596Z,3.30
2019-05-03T21:20:45.809Z,3.03
2019-05-03T21:23:15.000Z,2.67
2019-05-03T21:26:05.546Z,3.03
2019-05-03T21:28:11.618Z,2.97
2019-05-03T21:30:37.988Z,3.00
2019-05-03T21:33:05.417Z,2.90
2019-05-03T21:35:40.866Z,3.00
2019-05-03T21:38:00.472Z,2.80
2019-05-03T21:40:26.787Z,4.10
2019-05-03T21:42:54.484Z,2.77
2019-05-03T21:45:24.699Z,3.40
2019-05-03T21:47:55.871Z,3.10
2019-05-03T21:50:24.862Z,3.10
2019-05-03T21:52:50.739Z,3.70
2019-05-03T21:55:16.835Z,3.17
2019-05-03T21:57:44.883Z,2.83
2019-05-03T22:00:13.780Z,3.00
2019-05-03T22:02:40.140Z,2.73
2019-05-03T22:05:08.004Z,3.57
2019-05-03T22:07:35.041Z,2.77
2019-05-03T22:10:02.607Z,2.70
2019-05-03T22:12:28.715Z,3.10
2019-05-03T22:14:56.667Z,3.40
2019-05-03T22:17:34.522Z,2.73
2019-05-03T22:20:05.275Z,2.60
2019-05-03T22:22:50.199Z,2.90
2019-05-03T22:25:18.783Z,2.90
2019-05-03T22:27:45.596Z,3.10
2019-05-03T22:30:13.483Z,3.20
2019-05-03T22:32:39.572Z,3.03
2019-05-03T22:35:07.355Z,2.67
2019-05-03T22:37:35.313Z,2.90
2019-05-03T22:40:05.340Z,2.87
2019-05-03T22:42:34.423Z,3.70
2019-05-03T22:45:00.263Z,3.33
2019-05-03T22:47:26.608Z,3.10
2019-05-03T22:49:54.794Z,3.23
2019-05-03T22:52:21.664Z,3.30
2019-05-03T22:54:48.362Z,3.07
2019-05-03T22:57:15.274Z,2.87
2019-05-03T22:59:42.419Z,2.80
2019-05-03T23:02:08.472Z,3.10
2019-05-03T23:04:35.612Z,3.27
2019-05-03T23:07:01.817Z,2.70
2019-05-03T23:09:27.895Z,3.40
2019-05-03T23:11:55.260Z,2.87
2019-05-03T23:14:22.583Z,2.90
2019-05-03T23:16:48.631Z,3.10
2019-05-03T23:19:15.077Z,3.30
2019-05-03T23:21:49.713Z,3.37
2019-05-03T23:24:15.770Z,3.50
2019-05-03T23:26:41.852Z,3.90
2019-05-03T23:29:08.275Z,4.00
2019-05-03T23:31:34.462Z,3.13
2019-05-03T23:34:01.416Z,3.27
2019-05-03T23:36:33.708Z,3.57
2019-05-03T23:38:55.459Z,3.63
2019-05-03T23:41:21.779Z,3.40
2019-05-03T23:43:47.828Z,3.23
2019-05-03T23:46:16.156Z,3.40
2019-05-03T23:48:44.536Z,3.10
2019-05-03T23:51:14.891Z,3.10
2019-05-03T23:53:40.796Z,3.70
2019-05-03T23:56:12.004Z,3.40
2019-05-03T23:58:38.344Z,3.60
